Time;durP1;ratioP1;P1;durP2;ratioP2;P2;SDS_P1;SDS_P2;PMS_P1;PMS_P2;Temp;Humidity;BMP_temperature;BMP_pressure;BME280_temperature;BME280_humidity;BME280_pressure;Samples;Min_cycle;Max_cycle;Signal;HPM_P1;HPM_P2
2021/01/30 00:00:42;;;;;;;11.90;3.78;;;17.00;66.60;;;;;;5091048;28;20473;-65
2021/01/30 00:03:10;;;;;;;10.65;3.78;;;17.00;66.50;;;;;;5092429;28;20106;-60
2021/01/30 00:08:58;;;;;;;8.98;3.30;;;17.00;66.20;;;;;;5079347;28;20063;-61
2021/01/30 00:11:24;;;;;;;10.10;3.47;;;17.00;66.10;;;;;;5078012;28;20780;-60
2021/01/30 00:13:50;;;;;;;10.05;3.78;;;16.90;66.00;;;;;;5090310;28;20110;-60
2021/01/30 00:16:15;;;;;;;9.10;3.03;;;16.90;65.90;;;;;;5089552;28;20077;-62
2021/01/30 00:18:41;;;;;;;10.23;3.05;;;16.90;66.10;;;;;;5089763;28;20028;-63
2021/01/30 00:21:09;;;;;;;8.48;3.20;;;16.80;66.10;;;;;;5091168;28;20188;-60
2021/01/30 00:23:34;;;;;;;8.13;3.17;;;16.80;66.60;;;;;;5089816;28;20024;-60
2021/01/30 00:26:00;;;;;;;9.55;2.75;;;16.80;66.10;;;;;;5090521;28;20016;-64
2021/01/30 00:28:25;;;;;;;8.00;2.85;;;16.80;65.90;;;;;;5091780;28;20739;-65
2021/01/30 00:30:51;;;;;;;8.93;2.88;;;16.80;65.90;;;;;;5091130;28;20020;-61
2021/01/30 00:33:16;;;;;;;9.35;2.88;;;16.80;65.80;;;;;;5091696;28;20031;-62
2021/01/30 00:35:42;;;;;;;8.60;2.40;;;16.80;65.80;;;;;;5095363;28;20102;-62
2021/01/30 00:38:07;;;;;;;8.52;2.67;;;16.80;65.70;;;;;;5086344;28;20068;-63
2021/01/30 00:40:33;;;;;;;7.00;2.30;;;16.70;65.50;;;;;;5091204;28;20409;-60
2021/01/30 00:42:59;;;;;;;7.97;2.63;;;16.80;65.70;;;;;;5091301;28;20060;-61
2021/01/30 00:45:27;;;;;;;7.75;2.85;;;16.80;65.70;;;;;;5087835;28;20028;-61
2021/01/30 00:47:52;;;;;;;7.30;2.50;;;16.80;65.50;;;;;;5087623;28;20073;-63
2021/01/30 00:50:19;;;;;;;6.93;2.55;;;16.70;65.30;;;;;;5089067;28;20032;-61
2021/01/30 00:52:45;;;;;;;7.68;2.80;;;16.70;65.20;;;;;;5091572;28;20058;-60
2021/01/30 00:55:12;;;;;;;7.78;2.60;;;16.70;65.10;;;;;;5097052;28;20630;-61
2021/01/30 00:57:38;;;;;;;7.70;2.95;;;16.70;65.10;;;;;;5089678;28;20047;-65
2021/01/30 01:00:10;;;;;;;6.85;2.33;;;16.70;65.20;;;;;;5094396;28;20026;-61
2021/01/30 01:02:36;;;;;;;7.55;2.63;;;16.70;65.20;;;;;;5093965;28;20492;-61
2021/01/30 01:05:03;;;;;;;6.35;2.35;;;16.60;65.90;;;;;;5091427;28;20113;-60
2021/01/30 01:07:29;;;;;;;5.95;2.60;;;16.60;65.30;;;;;;5081849;28;20031;-61
2021/01/30 01:09:54;;;;;;;5.00;2.25;;;16.60;65.30;;;;;;5086502;28;20032;-61
2021/01/30 01:12:20;;;;;;;7.22;2.60;;;16.60;65.20;;;;;;5088597;28;20036;-62
2021/01/30 01:14:46;;;;;;;7.63;2.50;;;16.60;64.90;;;;;;5086868;28;20069;-61
2021/01/30 01:17:11;;;;;;;9.75;2.50;;;16.60;64.90;;;;;;5092144;28;20031;-60
2021/01/30 01:19:37;;;;;;;5.95;2.58;;;16.50;64.80;;;;;;5089870;28;20026;-61
2021/01/30 01:22:02;;;;;;;6.20;2.22;;;16.50;64.80;;;;;;5092522;28;20028;-63
2021/01/30 01:24:28;;;;;;;4.13;2.05;;;16.50;64.90;;;;;;5091213;28;20439;-61
2021/01/30 01:26:54;;;;;;;5.90;2.00;;;16.50;64.90;;;;;;5091113;28;20036;-62
2021/01/30 01:29:21;;;;;;;6.10;2.50;;;16.50;64.90;;;;;;5086271;28;20378;-61
2021/01/30 01:31:54;;;;;;;5.90;2.20;;;16.50;65.10;;;;;;5078646;28;20043;-62
2021/01/30 01:34:27;;;;;;;6.60;2.20;;;16.50;65.10;;;;;;5072971;28;20107;-61
2021/01/30 01:36:59;;;;;;;6.38;2.08;;;16.50;65.20;;;;;;5090343;28;20035;-63
2021/01/30 01:39:25;;;;;;;6.22;1.98;;;16.50;65.00;;;;;;5092061;28;20020;-63
2021/01/30 01:41:59;;;;;;;5.82;2.10;;;16.50;64.90;;;;;;5086369;28;20058;-62
2021/01/30 01:44:25;;;;;;;6.45;2.25;;;16.50;64.90;;;;;;5087970;28;20024;-66
2021/01/30 01:46:52;;;;;;;6.22;2.05;;;16.60;64.80;;;;;;5090742;28;20039;-64
2021/01/30 01:49:26;;;;;;;5.30;2.00;;;16.50;64.50;;;;;;5073047;28;20036;-60
2021/01/30 01:52:19;;;;;;;5.95;2.20;;;16.50;64.40;;;;;;5074601;28;20024;-62
2021/01/30 01:54:50;;;;;;;5.82;2.13;;;16.40;64.40;;;;;;5080466;28;20028;-63
2021/01/30 01:57:16;;;;;;;6.10;1.90;;;16.40;64.40;;;;;;5089639;28;20032;-62
2021/01/30 01:59:50;;;;;;;5.95;2.10;;;16.40;64.30;;;;;;5074801;28;20021;-62
2021/01/30 02:02:15;;;;;;;4.85;2.00;;;16.40;64.30;;;;;;5081109;28;20063;-62
2021/01/30 02:04:48;;;;;;;6.50;1.90;;;16.40;64.30;;;;;;5085000;28;20505;-63
2021/01/30 02:07:14;;;;;;;3.85;1.73;;;16.40;64.40;;;;;;5077119;28;20055;-61
2021/01/30 02:09:39;;;;;;;5.25;1.80;;;16.40;64.30;;;;;;5081386;28;20067;-62
2021/01/30 02:12:29;;;;;;;5.22;1.88;;;16.30;64.30;;;;;;5072195;28;20078;-62
2021/01/30 02:18:39;;;;;;;4.25;1.60;;;16.30;64.10;;;;;;5080803;28;20442;-63
2021/01/30 02:24:52;;;;;;;4.43;1.80;;;16.30;64.00;;;;;;5077734;28;20028;-62
2021/01/30 02:27:57;;;;;;;4.07;1.67;;;16.30;64.00;;;;;;5083225;28;20031;-63
2021/01/30 02:30:49;;;;;;;4.93;1.70;;;16.30;63.90;;;;;;5071464;28;20112;-62
2021/01/30 02:33:26;;;;;;;3.40;1.45;;;16.20;64.10;;;;;;5087516;28;20059;-63
2021/01/30 02:36:29;;;;;;;2.75;1.50;;;16.20;64.10;;;;;;5084696;28;20016;-62
2021/01/30 02:39:29;;;;;;;4.00;1.50;;;16.20;64.10;;;;;;5073240;28;20032;-62
2021/01/30 02:42:08;;;;;;;4.65;1.60;;;16.20;64.10;;;;;;5073038;28;20122;-62
2021/01/30 02:44:41;;;;;;;6.95;1.63;;;16.20;63.90;;;;;;5078122;28;20027;-61
2021/01/30 02:47:09;;;;;;;3.58;1.60;;;16.20;63.90;;;;;;5084120;28;20028;-62
2021/01/30 02:49:39;;;;;;;4.80;1.77;;;16.20;63.80;;;;;;5088449;28;20031;-62
2021/01/30 02:52:14;;;;;;;5.43;1.67;;;16.20;63.90;;;;;;5070898;28;20115;-61
2021/01/30 02:54:41;;;;;;;3.08;1.42;;;16.20;63.80;;;;;;5076167;28;20567;-63
2021/01/30 02:57:08;;;;;;;5.03;1.50;;;16.20;63.60;;;;;;5072296;28;20024;-62
2021/01/30 02:59:39;;;;;;;3.90;1.50;;;16.10;63.60;;;;;;5083499;28;20032;-60
2021/01/30 03:02:04;;;;;;;2.08;1.33;;;16.20;63.60;;;;;;5080596;28;20030;-63
2021/01/30 03:04:30;;;;;;;5.55;1.73;;;16.10;63.80;;;;;;5069888;28;20119;-62
2021/01/30 03:07:24;;;;;;;3.10;1.30;;;16.10;63.80;;;;;;5077847;28;20020;-62
2021/01/30 03:10:05;;;;;;;3.40;1.50;;;16.10;63.70;;;;;;5073584;28;20158;-62
2021/01/30 03:12:54;;;;;;;3.33;1.23;;;16.00;63.90;;;;;;5081396;28;20038;-61
2021/01/30 03:15:49;;;;;;;4.28;1.30;;;16.10;63.80;;;;;;5090276;28;20362;-62
2021/01/30 03:18:17;;;;;;;5.22;1.55;;;16.10;63.70;;;;;;5070714;28;20028;-60
2021/01/30 03:20:45;;;;;;;4.07;1.30;;;16.10;63.80;;;;;;5071014;28;20508;-61
2021/01/30 03:23:13;;;;;;;2.92;1.40;;;16.10;63.80;;;;;;5071033;28;20033;-63
2021/01/30 03:25:40;;;;;;;3.20;1.35;;;16.10;63.70;;;;;;5071462;28;20044;-62
2021/01/30 03:28:06;;;;;;;3.78;1.58;;;16.00;63.70;;;;;;5069586;28;20066;-62
2021/01/30 03:30:33;;;;;;;3.30;1.33;;;16.00;63.70;;;;;;5076730;28;20056;-63
2021/01/30 03:32:59;;;;;;;3.50;1.63;;;16.00;63.70;;;;;;5070672;28;20063;-61
2021/01/30 03:35:25;;;;;;;3.72;1.52;;;16.00;63.70;;;;;;5090108;28;20028;-62
2021/01/30 03:37:51;;;;;;;3.90;1.45;;;16.00;63.70;;;;;;5083625;28;20107;-61
2021/01/30 03:40:19;;;;;;;3.88;1.08;;;16.00;63.70;;;;;;5091269;28;20020;-62
2021/01/30 03:42:45;;;;;;;2.70;1.15;;;16.00;63.60;;;;;;5087747;28;20055;-62
2021/01/30 03:45:14;;;;;;;3.28;1.30;;;16.00;63.40;;;;;;5087345;28;20490;-63
2021/01/30 03:47:39;;;;;;;2.78;1.33;;;15.90;63.50;;;;;;5074739;28;20024;-62
2021/01/30 03:50:08;;;;;;;2.85;1.20;;;16.00;64.00;;;;;;5089325;28;20515;-62
2021/01/30 03:52:33;;;;;;;4.72;2.30;;;16.00;63.50;;;;;;5070129;28;20461;-62
2021/01/30 03:54:59;;;;;;;3.55;1.30;;;16.00;64.10;;;;;;5072052;28;20024;-63
2021/01/30 03:57:24;;;;;;;4.53;1.30;;;15.90;63.30;;;;;;5071244;28;20035;-61
2021/01/30 03:59:50;;;;;;;3.45;1.45;;;15.90;63.40;;;;;;5088470;28;20035;-61
2021/01/30 04:02:16;;;;;;;2.83;1.40;;;15.90;63.20;;;;;;5083663;28;20417;-62
2021/01/30 04:04:46;;;;;;;2.92;1.25;;;15.90;63.20;;;;;;5069595;28;20036;-61
2021/01/30 04:07:11;;;;;;;1.98;1.23;;;15.90;63.20;;;;;;5088080;28;20020;-62
2021/01/30 04:09:37;;;;;;;3.33;1.30;;;15.90;63.10;;;;;;5069154;28;20032;-61
2021/01/30 04:12:03;;;;;;;4.07;1.35;;;15.90;63.10;;;;;;5070380;28;20036;-60
2021/01/30 04:14:29;;;;;;;2.63;1.38;;;15.90;63.10;;;;;;5074494;28;20016;-61
2021/01/30 04:16:54;;;;;;;4.15;1.40;;;15.90;63.10;;;;;;5083488;28;20031;-61
2021/01/30 04:19:20;;;;;;;1.98;1.20;;;15.90;63.00;;;;;;5082054;28;20020;-63
2021/01/30 04:21:45;;;;;;;2.97;1.30;;;15.90;62.90;;;;;;5073232;28;20039;-60
2021/01/30 04:24:11;;;;;;;3.00;1.30;;;15.90;62.80;;;;;;5077088;28;20032;-61
2021/01/30 04:26:37;;;;;;;2.35;1.30;;;15.80;63.40;;;;;;5082408;28;20023;-60
2021/01/30 04:29:02;;;;;;;3.95;1.55;;;15.80;63.00;;;;;;5083964;28;20032;-61
2021/01/30 04:31:28;;;;;;;2.03;1.20;;;15.80;62.90;;;;;;5076333;28;20025;-64
2021/01/30 04:33:53;;;;;;;2.20;1.20;;;15.80;63.00;;;;;;5080693;28;20505;-62
2021/01/30 04:36:21;;;;;;;2.47;1.50;;;15.80;63.00;;;;;;5076305;28;20070;-61
2021/01/30 04:38:47;;;;;;;4.68;1.77;;;15.80;62.90;;;;;;5090536;28;20065;-61
2021/01/30 04:41:28;;;;;;;2.60;1.40;;;15.80;62.90;;;;;;5088625;28;20411;-63
2021/01/30 04:44:13;;;;;;;;;;;15.80;62.80;;;;;;5089636;28;20021;-61
2021/01/30 04:47:13;;;;;;;3.10;1.27;;;15.80;62.90;;;;;;5074936;28;20269;-63
2021/01/30 04:50:02;;;;;;;3.75;1.85;;;15.80;62.80;;;;;;5070212;28;20054;-62
2021/01/30 04:52:36;;;;;;;2.22;1.40;;;15.80;62.80;;;;;;5074728;28;20059;-61
2021/01/30 04:55:32;;;;;;;2.60;1.23;;;15.80;62.80;;;;;;5087637;28;20023;-61
2021/01/30 04:58:04;;;;;;;4.07;1.48;;;15.80;62.90;;;;;;5081519;28;20023;-62
2021/01/30 05:00:50;;;;;;;2.03;1.23;;;15.80;62.70;;;;;;5070654;28;20013;-62
2021/01/30 05:03:48;;;;;;;3.28;1.52;;;15.70;62.70;;;;;;5090247;28;20141;-61
2021/01/30 05:06:28;;;;;;;2.28;1.30;;;15.70;62.80;;;;;;5088386;28;20028;-61
2021/01/30 05:09:05;;;;;;;2.80;1.50;;;15.70;62.70;;;;;;5087440;28;20075;-63
2021/01/30 05:11:33;;;;;;;2.92;1.30;;;15.70;62.70;;;;;;5086941;28;20270;-61
2021/01/30 05:14:07;;;;;;;4.53;1.90;;;15.70;62.60;;;;;;5085233;28;20375;-61
2021/01/30 05:16:40;;;;;;;2.40;1.40;;;15.70;62.70;;;;;;5085822;28;20067;-64
2021/01/30 05:19:11;;;;;;;2.03;1.25;;;15.70;62.70;;;;;;5086988;28;20455;-62
2021/01/30 05:21:50;;;;;;;2.85;1.30;;;15.70;62.70;;;;;;5103215;28;20472;-61
2021/01/30 05:24:17;;;;;;;2.13;1.30;;;15.70;62.60;;;;;;5094798;28;20024;-62
2021/01/30 05:27:10;;;;;;;2.17;1.40;;;15.70;62.60;;;;;;5083777;28;20020;-62
2021/01/30 05:30:02;;;;;;;5.75;1.83;;;15.60;62.70;;;;;;5070358;28;20078;-61
2021/01/30 05:32:54;;;;;;;3.70;1.50;;;15.60;62.60;;;;;;5084942;28;20475;-62
2021/01/30 05:35:29;;;;;;;2.72;1.40;;;15.70;62.50;;;;;;5068744;28;20512;-61
2021/01/30 05:38:02;;;;;;;2.97;1.60;;;15.70;62.50;;;;;;5070060;28;20073;-62
2021/01/30 05:40:47;;;;;;;2.47;1.38;;;15.60;62.40;;;;;;5081298;28;20377;-62
2021/01/30 05:43:18;;;;;;;2.80;1.35;;;15.60;62.40;;;;;;5090676;28;20028;-61
2021/01/30 05:45:52;;;;;;;2.88;1.40;;;15.60;62.50;;;;;;5072048;28;20501;-62
2021/01/30 05:48:22;;;;;;;3.10;1.77;;;15.60;62.50;;;;;;5084545;28;20040;-62
2021/01/30 05:50:59;;;;;;;2.80;1.40;;;15.60;62.50;;;;;;5092489;28;20465;-64
2021/01/30 05:53:27;;;;;;;3.33;1.50;;;15.60;62.60;;;;;;5083091;28;20093;-61
2021/01/30 05:55:54;;;;;;;3.08;1.42;;;15.60;62.60;;;;;;5073073;28;20652;-61
2021/01/30 05:58:23;;;;;;;2.75;1.50;;;15.50;62.50;;;;;;5073837;28;20028;-63
2021/01/30 06:00:50;;;;;;;3.55;1.80;;;15.60;62.60;;;;;;5081412;28;20366;-61
2021/01/30 06:03:22;;;;;;;3.60;1.60;;;15.60;62.70;;;;;;5077772;28;20028;-62
2021/01/30 06:05:52;;;;;;;2.85;1.60;;;15.50;62.70;;;;;;5086939;28;20020;-63
2021/01/30 06:08:22;;;;;;;4.47;1.70;;;15.50;62.60;;;;;;5081719;28;20244;-60
2021/01/30 06:10:52;;;;;;;3.70;1.60;;;15.50;62.80;;;;;;5082987;28;20038;-63
2021/01/30 06:13:22;;;;;;;3.75;1.77;;;15.50;62.80;;;;;;5075831;28;20155;-62
2021/01/30 06:15:52;;;;;;;3.63;1.73;;;15.50;62.60;;;;;;5104533;28;20023;-61
2021/01/30 06:18:36;;;;;;;3.30;1.67;;;15.40;62.60;;;;;;5088459;28;20142;-63
2021/01/30 06:21:11;;;;;;;3.72;1.60;;;15.40;62.80;;;;;;5080346;28;20038;-63
2021/01/30 06:23:38;;;;;;;3.08;1.65;;;15.40;62.70;;;;;;5072772;28;20117;-64
2021/01/30 06:26:13;;;;;;;3.30;1.75;;;15.40;62.50;;;;;;5074818;28;20021;-62
2021/01/30 06:28:41;;;;;;;2.70;1.52;;;15.40;62.40;;;;;;5081935;28;20031;-61
2021/01/30 06:31:16;;;;;;;2.85;1.50;;;15.40;62.40;;;;;;5103793;28;20024;-61
2021/01/30 06:33:49;;;;;;;3.53;1.80;;;15.40;62.30;;;;;;5090255;28;20039;-60
2021/01/30 06:36:19;;;;;;;4.35;1.83;;;15.40;62.30;;;;;;5092267;28;20032;-61
2021/01/30 06:38:56;;;;;;;3.78;1.90;;;15.40;62.30;;;;;;5092499;28;20020;-60
2021/01/30 06:41:24;;;;;;;3.90;1.75;;;15.40;62.40;;;;;;5090399;28;20016;-61
2021/01/30 06:43:57;;;;;;;2.70;1.60;;;15.40;62.20;;;;;;5090698;28;20099;-61
2021/01/30 06:46:24;;;;;;;16.80;15.32;;;15.40;62.60;;;;;;5082100;28;20024;-62
2021/01/30 06:48:56;;;;;;;8.20;5.90;;;15.40;62.60;;;;;;5078791;28;20020;-60
2021/01/30 06:51:37;;;;;;;5.75;3.65;;;15.40;62.60;;;;;;5085111;28;20688;-62
2021/01/30 06:54:24;;;;;;;4.45;2.25;;;15.40;62.70;;;;;;5094862;27;20072;-60
2021/01/30 06:57:01;;;;;;;4.85;2.00;;;15.60;62.40;;;;;;5080112;28;20020;-62
2021/01/30 06:59:30;;;;;;;3.97;1.90;;;15.60;62.00;;;;;;5086221;28;20103;-65
2021/01/30 07:01:56;;;;;;;7.85;2.17;;;15.70;61.50;;;;;;5083170;28;20028;-63
2021/01/30 07:04:40;;;;;;;4.32;1.67;;;15.80;61.00;;;;;;5072065;28;20480;-61
2021/01/30 07:07:16;;;;;;;12.43;3.10;;;15.90;61.00;;;;;;5074137;28;20033;-61
2021/01/30 07:10:08;;;;;;;3.88;1.80;;;16.00;60.90;;;;;;5084558;28;20028;-61
2021/01/30 07:13:08;;;;;;;4.90;1.80;;;16.00;60.90;;;;;;5077754;28;20409;-61
2021/01/30 07:15:42;;;;;;;3.17;1.60;;;16.00;60.90;;;;;;5080718;28;20490;-62
2021/01/30 07:18:30;;;;;;;25.42;22.73;;;16.00;61.50;;;;;;5082516;28;20096;-61
2021/01/30 07:21:11;;;;;;;10.50;8.32;;;15.90;61.70;;;;;;5073678;28;20021;-62
2021/01/30 07:24:05;;;;;;;9.02;4.28;;;15.90;62.50;;;;;;5090863;28;20024;-62
2021/01/30 07:27:02;;;;;;;5.22;2.90;;;15.90;62.70;;;;;;5082444;28;20089;-63
2021/01/30 07:29:44;;;;;;;5.60;2.97;;;16.00;62.60;;;;;;5082431;28;20051;-61
2021/01/30 07:32:17;;;;;;;5.63;2.97;;;16.10;62.50;;;;;;5078077;28;20032;-61
2021/01/30 07:35:17;;;;;;;5.70;2.83;;;16.10;62.30;;;;;;5089389;28;20546;-62
2021/01/30 07:37:55;;;;;;;;;;;16.10;62.20;;;;;;5077736;28;20064;-62
2021/01/30 07:40:36;;;;;;;4.90;2.40;;;16.10;62.20;;;;;;5070985;28;19950;-62
2021/01/30 07:43:38;;;;;;;4.45;2.28;;;16.20;62.10;;;;;;5078542;28;20489;-61
2021/01/30 07:46:26;;;;;;;5.22;2.47;;;16.20;62.00;;;;;;5078621;28;20044;-63
2021/01/30 07:48:58;;;;;;;5.15;2.25;;;16.20;61.90;;;;;;5079615;28;20111;-62
2021/01/30 07:51:47;;;;;;;5.35;2.35;;;16.20;62.00;;;;;;5087897;28;20042;-65
2021/01/30 07:54:13;;;;;;;7.07;2.40;;;16.20;61.40;;;;;;5073394;28;20114;-63
2021/01/30 07:57:16;;;;;;;6.18;2.55;;;16.20;61.10;;;;;;5089748;28;20518;-62
2021/01/30 07:59:57;;;;;;;3.53;2.05;;;16.20;61.10;;;;;;5089289;28;20031;-63
2021/01/30 08:02:59;;;;;;;12.02;4.53;;;16.10;61.20;;;;;;5090380;28;20030;-62
2021/01/30 08:05:52;;;;;;;13.70;8.32;;;16.10;61.30;;;;;;5071175;28;20059;-62
2021/01/30 08:08:28;;;;;;;86.32;74.70;;;16.00;62.60;;;;;;5081798;28;20384;-63
2021/01/30 08:11:23;;;;;;;36.38;26.67;;;16.00;63.20;;;;;;5090335;28;20027;-60
2021/01/30 08:14:20;;;;;;;25.48;15.00;;;16.10;63.10;;;;;;5088748;28;20028;-61
2021/01/30 08:17:05;;;;;;;15.27;10.38;;;16.00;62.90;;;;;;5090223;28;20020;-63
2021/01/30 08:20:20;;;;;;;22.60;10.27;;;16.10;62.50;;;;;;5083223;28;20063;-59
2021/01/30 08:23:20;;;;;;;20.75;10.40;;;16.00;62.80;;;;;;5068383;28;20040;-64
2021/01/30 08:26:10;;;;;;;22.73;9.75;;;16.10;64.80;;;;;;5087470;28;20076;-62
2021/01/30 08:28:42;;;;;;;24.70;9.43;;;16.10;65.20;;;;;;5081175;28;20042;-61
2021/01/30 08:31:27;;;;;;;20.95;9.07;;;16.20;65.70;;;;;;5081029;28;20031;-61
2021/01/30 08:34:19;;;;;;;16.67;7.70;;;16.20;65.60;;;;;;5087920;28;20121;-62
2021/01/30 08:36:48;;;;;;;18.88;7.53;;;16.20;65.70;;;;;;5087699;28;20028;-60
2021/01/30 08:39:22;;;;;;;15.88;6.60;;;16.30;65.50;;;;;;5088033;28;20062;-61
2021/01/30 08:42:00;;;;;;;12.50;6.65;;;16.30;65.30;;;;;;5088879;28;20024;-61
2021/01/30 08:44:35;;;;;;;23.92;6.10;;;16.20;64.60;;;;;;5087874;28;20081;-60
2021/01/30 08:47:13;;;;;;;16.02;6.38;;;16.30;65.10;;;;;;5077514;28;20024;-60
2021/01/30 08:49:39;;;;;;;15.30;6.18;;;16.40;66.00;;;;;;5086748;28;20464;-61
2021/01/30 08:52:13;;;;;;;18.13;5.93;;;16.50;66.30;;;;;;5073949;28;20029;-59
2021/01/30 08:54:41;;;;;;;21.83;6.05;;;16.50;66.10;;;;;;5076752;28;20031;-61
2021/01/30 08:57:45;;;;;;;13.50;5.82;;;16.50;66.80;;;;;;5082943;28;20024;-60
2021/01/30 09:00:26;;;;;;;23.80;5.68;;;16.70;66.10;;;;;;5042283;28;20025;-59
2021/01/30 09:02:57;;;;;;;18.40;6.32;;;16.70;66.00;;;;;;5040474;28;20025;-60
2021/01/30 09:05:22;;;;;;;16.27;5.22;;;16.60;65.90;;;;;;5075307;28;20036;-60
2021/01/30 09:07:49;;;;;;;12.13;4.93;;;16.50;66.20;;;;;;5076658;28;20033;-59
2021/01/30 09:10:21;;;;;;;14.77;4.45;;;16.50;66.10;;;;;;5082518;28;20055;-59
2021/01/30 09:12:56;;;;;;;10.75;4.63;;;16.60;65.80;;;;;;5106805;28;20012;-61
2021/01/30 09:15:40;;;;;;;15.70;6.28;;;16.50;65.60;;;;;;5101740;28;20032;-60
2021/01/30 09:18:36;;;;;;;18.55;6.47;;;16.50;65.50;;;;;;5091834;28;20035;-60
2021/01/30 09:21:28;;;;;;;15.60;4.82;;;16.60;65.40;;;;;;5091389;28;20020;-59
2021/01/30 09:23:53;;;;;;;13.82;4.57;;;16.60;64.90;;;;;;5093376;28;20047;-59
2021/01/30 09:27:01;;;;;;;11.10;4.75;;;16.70;64.60;;;;;;5091225;28;20488;-61
2021/01/30 09:29:35;;;;;;;11.45;4.30;;;16.70;64.80;;;;;;5088321;28;20441;-61
2021/01/30 09:32:00;;;;;;;10.25;4.47;;;16.80;64.50;;;;;;5086383;28;20024;-62
2021/01/30 09:34:55;;;;;;;9.90;4.28;;;16.80;64.70;;;;;;5083915;28;20028;-63
2021/01/30 09:37:37;;;;;;;12.95;3.92;;;16.80;64.70;;;;;;5085964;28;20156;-60
2021/01/30 09:40:07;;;;;;;11.43;4.10;;;16.80;64.10;;;;;;5084676;28;20012;-60
2021/01/30 09:42:33;;;;;;;9.30;4.10;;;16.80;64.00;;;;;;5087283;28;20020;-61
2021/01/30 09:45:05;;;;;;;11.63;4.78;;;16.90;64.00;;;;;;5086068;28;20035;-62
2021/01/30 09:47:31;;;;;;;8.63;3.78;;;16.80;63.90;;;;;;5091721;28;20020;-62
2021/01/30 09:50:08;;;;;;;10.98;3.95;;;16.80;63.70;;;;;;5081675;28;20161;-63
2021/01/30 09:52:34;;;;;;;16.40;3.88;;;16.90;64.50;;;;;;5075861;28;20029;-61
2021/01/30 09:55:08;;;;;;;7.70;3.17;;;16.90;64.10;;;;;;5080128;28;20093;-60
2021/01/30 09:57:36;;;;;;;11.23;3.80;;;17.00;64.00;;;;;;5087523;28;20089;-63
2021/01/30 10:00:09;;;;;;;16.42;4.20;;;17.10;63.60;;;;;;5080103;28;20104;-59
2021/01/30 10:02:34;;;;;;;18.80;4.65;;;17.00;63.90;;;;;;5085214;28;20016;-61
2021/01/30 10:05:13;;;;;;;17.58;4.05;;;17.00;65.30;;;;;;5085335;28;20036;-57
2021/01/30 10:07:40;;;;;;;16.00;3.80;;;17.00;65.40;;;;;;5078821;28;20029;-60
2021/01/30 10:10:38;;;;;;;14.00;3.38;;;17.00;65.50;;;;;;5073975;28;20031;-60
2021/01/30 10:13:12;;;;;;;11.18;3.10;;;17.00;66.10;;;;;;5056510;28;20184;-60
2021/01/30 10:15:40;;;;;;;11.13;3.47;;;16.90;65.50;;;;;;5087399;28;20058;-62
2021/01/30 10:18:11;;;;;;;10.57;3.08;;;16.90;65.60;;;;;;5073821;28;20129;-60
2021/01/30 10:20:45;;;;;;;13.25;3.38;;;17.00;66.40;;;;;;5074844;28;20036;-60
2021/01/30 10:23:10;;;;;;;15.35;3.50;;;17.00;65.80;;;;;;5071369;28;20048;-61
2021/01/30 10:25:36;;;;;;;21.40;5.18;;;17.00;66.00;;;;;;5075647;28;20517;-62
2021/01/30 10:28:11;;;;;;;18.10;3.72;;;17.10;66.80;;;;;;5078672;28;20020;-59
2021/01/30 10:30:38;;;;;;;14.40;3.85;;;17.30;65.70;;;;;;5077457;28;20503;-59
2021/01/30 10:33:09;;;;;;;20.20;3.50;;;17.30;65.40;;;;;;5084309;28;20047;-60
2021/01/30 10:35:42;;;;;;;;;;;17.20;65.20;;;;;;5077323;28;20027;-59
2021/01/30 10:38:11;;;;;;;15.38;3.20;;;17.20;64.90;;;;;;5090783;28;20312;-61
2021/01/30 10:40:38;;;;;;;15.40;3.72;;;17.20;65.10;;;;;;5085657;28;20047;-59
2021/01/30 10:43:27;;;;;;;15.75;3.92;;;17.10;64.90;;;;;;5072548;28;20043;-60
2021/01/30 10:45:56;;;;;;;15.68;4.32;;;17.10;64.80;;;;;;5092919;28;20024;-61
2021/01/30 10:48:28;;;;;;;14.45;3.50;;;17.10;64.40;;;;;;5096405;28;20031;-59
2021/01/30 10:51:07;;;;;;;13.13;4.90;;;17.20;64.00;;;;;;5079197;28;20510;-64
2021/01/30 10:53:39;;;;;;;9.70;5.10;;;16.60;50.80;;;;;;5086544;28;20039;-61
2021/01/30 10:56:20;;;;;;;8.77;5.97;;;15.50;50.90;;;;;;5082128;28;20029;-61
2021/01/30 10:58:47;;;;;;;9.07;5.47;;;14.40;48.90;;;;;;5079408;28;20024;-63
2021/01/30 11:01:28;;;;;;;7.97;5.57;;;14.00;49.80;;;;;;5078898;28;20025;-63
2021/01/30 11:03:56;;;;;;;7.47;5.22;;;13.70;49.60;;;;;;5083084;28;20059;-61
2021/01/30 11:06:32;;;;;;;9.38;5.53;;;13.70;48.70;;;;;;5069931;28;20659;-62
2021/01/30 11:09:20;;;;;;;26.48;15.77;;;13.40;49.20;;;;;;5084514;28;20016;-59
2021/01/30 11:11:46;;;;;;;16.00;7.32;;;13.60;54.10;;;;;;5072592;28;20039;-59
2021/01/30 11:14:31;;;;;;;18.70;6.25;;;14.30;56.20;;;;;;5072049;28;20035;-59
2021/01/30 11:16:57;;;;;;;16.92;5.18;;;14.90;57.40;;;;;;5076477;28;20116;-57
2021/01/30 11:19:45;;;;;;;22.00;5.97;;;15.30;57.70;;;;;;5075931;28;20485;-60
2021/01/30 11:22:25;;;;;;;21.65;5.90;;;15.50;58.50;;;;;;5075619;28;20127;-61
2021/01/30 11:25:12;;;;;;;19.13;5.43;;;15.70;59.30;;;;;;5071982;28;20493;-61
2021/01/30 11:27:45;;;;;;;27.02;5.93;;;15.70;60.30;;;;;;5080469;28;20037;-59
2021/01/30 11:30:18;;;;;;;27.02;5.70;;;15.80;61.00;;;;;;5079251;28;20028;-61
2021/01/30 11:32:50;;;;;;;25.15;5.35;;;15.80;61.90;;;;;;5074471;28;20476;-59
2021/01/30 11:35:22;;;;;;;;;;;15.80;61.70;;;;;;5091836;28;20103;-58
2021/01/30 11:37:49;;;;;;;21.85;5.05;;;16.00;62.60;;;;;;5081084;28;19912;-61
2021/01/30 11:40:15;;;;;;;16.27;4.50;;;15.90;63.50;;;;;;5067912;28;20025;-60
2021/01/30 11:42:40;;;;;;;23.33;5.32;;;15.90;64.00;;;;;;5068700;28;20038;-61
2021/01/30 11:45:07;;;;;;;21.92;5.03;;;16.00;64.30;;;;;;5072868;28;20634;-60
2021/01/30 11:47:33;;;;;;;16.10;4.13;;;15.90;64.00;;;;;;5064585;28;20032;-61
2021/01/30 11:49:58;;;;;;;16.23;4.05;;;15.90;63.90;;;;;;5070656;28;20097;-60
2021/01/30 11:52:25;;;;;;;13.68;3.95;;;15.90;63.70;;;;;;5066200;28;20036;-61
2021/01/30 11:54:51;;;;;;;16.20;4.53;;;15.80;63.90;;;;;;5085911;28;20027;-60
2021/01/30 11:57:17;;;;;;;17.23;4.57;;;16.00;63.60;;;;;;5069191;28;20024;-60
2021/01/30 11:59:42;;;;;;;15.48;4.05;;;16.00;64.80;;;;;;5084555;28;20073;-59
2021/01/30 12:02:16;;;;;;;12.23;3.33;;;16.00;64.90;;;;;;5070834;28;20025;-60
2021/01/30 12:04:42;;;;;;;16.13;3.90;;;16.00;64.60;;;;;;5081346;28;20031;-60
2021/01/30 12:07:07;;;;;;;13.35;3.70;;;15.90;64.00;;;;;;5109802;28;20034;-60
2021/01/30 12:09:33;;;;;;;15.75;3.58;;;15.90;63.90;;;;;;5111115;28;20031;-59
2021/01/30 12:11:58;;;;;;;10.32;3.45;;;16.00;64.40;;;;;;5110798;28;20039;-61
2021/01/30 12:14:24;;;;;;;11.00;3.20;;;16.00;64.00;;;;;;5107108;28;20024;-60
2021/01/30 12:16:53;;;;;;;11.18;3.42;;;16.00;64.70;;;;;;5081569;28;20107;-60
2021/01/30 12:19:19;;;;;;;12.27;3.30;;;16.00;64.00;;;;;;5079126;28;20020;-60
2021/01/30 12:21:45;;;;;;;10.80;3.25;;;16.00;64.60;;;;;;5090414;28;20063;-61
2021/01/30 12:24:10;;;;;;;15.60;3.17;;;16.00;64.90;;;;;;5089348;28;20458;-60
2021/01/30 12:26:36;;;;;;;16.77;3.35;;;16.00;64.90;;;;;;5095185;28;20024;-61
2021/01/30 12:29:02;;;;;;;12.77;2.72;;;16.00;64.90;;;;;;5092477;28;20020;-58
2021/01/30 12:31:27;;;;;;;9.43;3.00;;;16.10;65.20;;;;;;5081899;28;20085;-62
2021/01/30 12:33:53;;;;;;;13.52;3.13;;;16.20;64.90;;;;;;5077095;28;20020;-59
2021/01/30 12:36:18;;;;;;;13.73;3.15;;;16.20;64.80;;;;;;5086552;28;20020;-59
2021/01/30 12:38:44;;;;;;;10.10;3.20;;;16.10;64.50;;;;;;5088355;28;20081;-60
2021/01/30 12:41:11;;;;;;;11.73;2.90;;;16.10;64.40;;;;;;5089306;28;20082;-61
2021/01/30 12:43:37;;;;;;;14.18;3.28;;;16.20;64.60;;;;;;5084879;28;20020;-58
2021/01/30 12:46:02;;;;;;;14.98;3.03;;;16.20;64.60;;;;;;5083178;28;20025;-62
2021/01/30 12:48:28;;;;;;;17.77;3.75;;;16.30;64.50;;;;;;5085461;28;20036;-62
2021/01/30 12:50:54;;;;;;;17.52;3.83;;;16.20;64.10;;;;;;5073766;28;20063;-59
2021/01/30 12:53:20;;;;;;;21.35;4.22;;;16.30;64.20;;;;;;5072410;28;20021;-60
2021/01/30 12:55:46;;;;;;;17.40;4.10;;;16.20;63.90;;;;;;5076507;28;20028;-59
2021/01/30 12:58:18;;;;;;;16.38;3.80;;;16.30;64.10;;;;;;5079935;28;20060;-60
2021/01/30 13:00:44;;;;;;;14.82;3.60;;;16.20;63.60;;;;;;5074036;28;20133;-59
2021/01/30 13:03:09;;;;;;;11.93;3.70;;;16.20;63.20;;;;;;5073420;28;20481;-59
2021/01/30 13:05:35;;;;;;;24.33;5.90;;;16.30;62.80;;;;;;5073911;28;20082;-60
2021/01/30 13:08:02;;;;;;;16.33;4.00;;;16.30;62.70;;;;;;5072551;28;20029;-60
2021/01/30 13:10:28;;;;;;;15.45;4.22;;;16.30;63.20;;;;;;5073911;28;20108;-57
2021/01/30 13:12:53;;;;;;;16.92;4.18;;;16.30;63.30;;;;;;5073272;28;20103;-59
2021/01/30 13:15:19;;;;;;;13.63;4.20;;;16.30;63.30;;;;;;5073574;28;20107;-63
2021/01/30 13:17:45;;;;;;;16.85;7.57;;;16.30;62.90;;;;;;5072066;28;20457;-59
2021/01/30 13:20:11;;;;;;;10.27;4.72;;;16.40;63.00;;;;;;5072127;28;20024;-59
2021/01/30 13:22:36;;;;;;;11.73;4.30;;;16.40;62.90;;;;;;5073075;28;20085;-59
2021/01/30 13:25:05;;;;;;;20.70;6.28;;;16.40;62.90;;;;;;5073305;28;20067;-62